North Prairie, Wisconsin
Current Conditions -  °F | °C
As of 8:45 AM on Friday 28 Nov 2014 (Local Time) from KUES Reporting Station
Light Snow Light Snow  
Wind Chill:   Ceiling: 5000
Heat Index: 16°   Visibility: 5mi
Dew Point: 12°   Wind: 8mph
Humidity: 86%   Direction: 140°SE
Pressure: 30.19"   Gusts: NA
Location:  42.93°N, 88.41°W
Report Text: KUES 281445Z 14007KT 5SM -SN SCT021 BKN050 OVC065 M09/M11 A3019
Loading
Personal Weather Stations






























Interactive Weather Map New forecast layout! Learn more

10-Day Weather Forecast

Advertisements
Track Severe Weather on mobile